sensor_id;sensor_type;location;lat;lon;timestamp;pressure;altitude;pressure_sealevel;temperature;humidity
40794;BME280;26502;51.886;15.604;2022-10-16T00:02:06;100459.77;;;11.49;75.85
40794;BME280;26502;51.886;15.604;2022-10-16T00:07:14;100462.36;;;11.51;75.78
40794;BME280;26502;51.886;15.604;2022-10-16T00:12:21;100456.40;;;11.58;75.91
40794;BME280;26502;51.886;15.604;2022-10-16T00:17:29;100458.17;;;11.63;76.06
40794;BME280;26502;51.886;15.604;2022-10-16T00:22:37;100454.34;;;11.65;76.26
40794;BME280;26502;51.886;15.604;2022-10-16T00:27:45;100454.90;;;11.68;76.39
40794;BME280;26502;51.886;15.604;2022-10-16T00:32:56;100456.45;;;11.70;76.49
40794;BME280;26502;51.886;15.604;2022-10-16T00:38:05;100461.84;;;11.74;76.55
40794;BME280;26502;51.886;15.604;2022-10-16T00:43:36;100470.44;;;11.76;76.56
40794;BME280;26502;51.886;15.604;2022-10-16T00:48:46;100478.19;;;11.78;76.46
40794;BME280;26502;51.886;15.604;2022-10-16T00:53:56;100477.25;;;11.79;76.55
40794;BME280;26502;51.886;15.604;2022-10-16T00:59:08;100474.34;;;11.85;76.85
40794;BME280;26502;51.886;15.604;2022-10-16T01:04:18;100470.59;;;11.90;76.87
40794;BME280;26502;51.886;15.604;2022-10-16T01:09:30;100476.16;;;11.93;77.00
40794;BME280;26502;51.886;15.604;2022-10-16T01:14:45;100473.75;;;11.91;77.14
40794;BME280;26502;51.886;15.604;2022-10-16T01:20:03;100477.88;;;11.90;77.35
40794;BME280;26502;51.886;15.604;2022-10-16T01:25:16;100488.17;;;11.95;77.34
40794;BME280;26502;51.886;15.604;2022-10-16T01:30:28;100493.15;;;12.00;77.48
40794;BME280;26502;51.886;15.604;2022-10-16T01:35:40;100501.13;;;12.06;77.57
40794;BME280;26502;51.886;15.604;2022-10-16T01:40:52;100504.14;;;12.10;77.76
40794;BME280;26502;51.886;15.604;2022-10-16T01:46:02;100503.94;;;12.15;77.81
40794;BME280;26502;51.886;15.604;2022-10-16T01:51:13;100505.77;;;12.10;77.94
40794;BME280;26502;51.886;15.604;2022-10-16T01:56:23;100503.48;;;12.09;77.96
40794;BME280;26502;51.886;15.604;2022-10-16T02:01:33;100509.92;;;12.16;78.16
40794;BME280;26502;51.886;15.604;2022-10-16T02:06:42;100512.63;;;12.20;78.14
40794;BME280;26502;51.886;15.604;2022-10-16T02:11:49;100507.59;;;12.21;78.14
40794;BME280;26502;51.886;15.604;2022-10-16T02:17:01;100509.00;;;12.22;78.24
40794;BME280;26502;51.886;15.604;2022-10-16T02:22:10;100499.71;;;12.23;78.33
40794;BME280;26502;51.886;15.604;2022-10-16T02:27:26;100501.08;;;12.24;78.51
40794;BME280;26502;51.886;15.604;2022-10-16T02:32:40;100506.16;;;12.22;78.41
40794;BME280;26502;51.886;15.604;2022-10-16T02:37:49;100509.34;;;12.23;78.48
40794;BME280;26502;51.886;15.604;2022-10-16T02:42:57;100512.77;;;12.21;78.59
40794;BME280;26502;51.886;15.604;2022-10-16T02:48:04;100520.83;;;12.24;78.75
40794;BME280;26502;51.886;15.604;2022-10-16T02:53:12;100521.19;;;12.28;78.70
40794;BME280;26502;51.886;15.604;2022-10-16T02:58:20;100516.98;;;12.31;78.71
40794;BME280;26502;51.886;15.604;2022-10-16T03:03:27;100514.00;;;12.30;78.85
40794;BME280;26502;51.886;15.604;2022-10-16T03:08:34;100521.62;;;12.26;78.77
40794;BME280;26502;51.886;15.604;2022-10-16T03:13:42;100528.61;;;12.17;78.73
40794;BME280;26502;51.886;15.604;2022-10-16T03:18:50;100535.46;;;12.10;78.60
40794;BME280;26502;51.886;15.604;2022-10-16T03:23:59;100535.38;;;12.08;78.54
40794;BME280;26502;51.886;15.604;2022-10-16T03:29:06;100538.99;;;12.11;78.62
40794;BME280;26502;51.886;15.604;2022-10-16T03:34:13;100542.76;;;12.15;78.54
40794;BME280;26502;51.886;15.604;2022-10-16T03:39:21;100547.41;;;12.10;78.50
40794;BME280;26502;51.886;15.604;2022-10-16T03:44:28;100541.64;;;12.07;78.63
40794;BME280;26502;51.886;15.604;2022-10-16T03:49:35;100547.69;;;12.03;78.55
40794;BME280;26502;51.886;15.604;2022-10-16T03:54:42;100557.66;;;11.98;78.48
40794;BME280;26502;51.886;15.604;2022-10-16T03:59:49;100556.39;;;11.95;78.36
40794;BME280;26502;51.886;15.604;2022-10-16T04:04:57;100555.79;;;11.91;78.24
40794;BME280;26502;51.886;15.604;2022-10-16T04:10:05;100557.05;;;11.86;78.22
40794;BME280;26502;51.886;15.604;2022-10-16T04:15:13;100563.13;;;11.81;78.13
40794;BME280;26502;51.886;15.604;2022-10-16T04:20:20;100566.23;;;11.79;78.31
40794;BME280;26502;51.886;15.604;2022-10-16T04:25:28;100573.70;;;11.83;78.38
40794;BME280;26502;51.886;15.604;2022-10-16T04:30:37;100574.65;;;11.82;78.47
40794;BME280;26502;51.886;15.604;2022-10-16T04:35:44;100578.09;;;11.76;78.34
40794;BME280;26502;51.886;15.604;2022-10-16T04:40:51;100585.75;;;11.62;78.60
40794;BME280;26502;51.886;15.604;2022-10-16T04:45:58;100582.52;;;11.62;78.71
40794;BME280;26502;51.886;15.604;2022-10-16T04:51:06;100588.41;;;11.66;78.68
40794;BME280;26502;51.886;15.604;2022-10-16T04:56:13;100597.80;;;11.68;78.61
40794;BME280;26502;51.886;15.604;2022-10-16T05:01:20;100608.08;;;11.64;78.71
40794;BME280;26502;51.886;15.604;2022-10-16T05:06:28;100608.14;;;11.67;78.67
40794;BME280;26502;51.886;15.604;2022-10-16T05:11:35;100607.61;;;11.72;78.66
40794;BME280;26502;51.886;15.604;2022-10-16T05:16:43;100609.42;;;11.75;78.83
40794;BME280;26502;51.886;15.604;2022-10-16T05:21:50;100608.59;;;11.74;78.99
40794;BME280;26502;51.886;15.604;2022-10-16T05:26:57;100606.27;;;11.74;79.12
40794;BME280;26502;51.886;15.604;2022-10-16T05:32:04;100602.31;;;11.75;79.27
40794;BME280;26502;51.886;15.604;2022-10-16T05:37:11;100606.73;;;11.76;79.25
40794;BME280;26502;51.886;15.604;2022-10-16T05:42:18;100608.01;;;11.75;79.09
40794;BME280;26502;51.886;15.604;2022-10-16T05:47:26;100615.16;;;11.74;79.16
40794;BME280;26502;51.886;15.604;2022-10-16T05:52:33;100622.77;;;11.80;79.24
40794;BME280;26502;51.886;15.604;2022-10-16T05:57:40;100627.73;;;11.85;79.16
40794;BME280;26502;51.886;15.604;2022-10-16T06:02:48;100628.87;;;11.88;79.17
40794;BME280;26502;51.886;15.604;2022-10-16T06:07:55;100629.80;;;11.91;79.14
40794;BME280;26502;51.886;15.604;2022-10-16T06:13:02;100640.61;;;11.93;78.94
40794;BME280;26502;51.886;15.604;2022-10-16T06:18:09;100657.11;;;11.90;78.97
40794;BME280;26502;51.886;15.604;2022-10-16T06:23:16;100662.42;;;11.90;79.11
40794;BME280;26502;51.886;15.604;2022-10-16T06:28:23;100661.88;;;11.95;79.37
40794;BME280;26502;51.886;15.604;2022-10-16T06:33:37;100658.52;;;12.04;79.44
40794;BME280;26502;51.886;15.604;2022-10-16T06:38:44;100670.71;;;12.16;79.62
40794;BME280;26502;51.886;15.604;2022-10-16T06:43:52;100686.52;;;12.21;79.51
40794;BME280;26502;51.886;15.604;2022-10-16T06:48:59;100700.15;;;12.28;79.92
40794;BME280;26502;51.886;15.604;2022-10-16T06:54:06;100702.20;;;12.44;80.05
40794;BME280;26502;51.886;15.604;2022-10-16T06:59:13;100706.67;;;12.62;80.26
40794;BME280;26502;51.886;15.604;2022-10-16T07:04:21;100717.79;;;12.73;80.41
40794;BME280;26502;51.886;15.604;2022-10-16T07:09:28;100719.95;;;12.85;80.38
40794;BME280;26502;51.886;15.604;2022-10-16T07:14:35;100727.63;;;12.94;80.20
40794;BME280;26502;51.886;15.604;2022-10-16T07:19:42;100720.41;;;12.96;80.12
40794;BME280;26502;51.886;15.604;2022-10-16T07:24:49;100717.97;;;12.98;80.16
40794;BME280;26502;51.886;15.604;2022-10-16T07:29:59;100719.64;;;13.01;80.15
40794;BME280;26502;51.886;15.604;2022-10-16T07:35:08;100718.80;;;13.09;80.27
40794;BME280;26502;51.886;15.604;2022-10-16T07:40:16;100714.88;;;13.17;80.36
40794;BME280;26502;51.886;15.604;2022-10-16T07:45:24;100709.84;;;13.26;80.62
40794;BME280;26502;51.886;15.604;2022-10-16T07:50:32;100715.41;;;13.39;80.69
40794;BME280;26502;51.886;15.604;2022-10-16T07:55:41;100726.27;;;13.52;80.84
40794;BME280;26502;51.886;15.604;2022-10-16T08:00:48;100731.01;;;13.65;80.89
40794;BME280;26502;51.886;15.604;2022-10-16T08:05:58;100739.53;;;13.83;81.14
40794;BME280;26502;51.886;15.604;2022-10-16T08:11:06;100727.03;;;14.02;81.41
40794;BME280;26502;51.886;15.604;2022-10-16T08:16:13;100733.96;;;14.26;81.84
40794;BME280;26502;51.886;15.604;2022-10-16T08:21:22;100739.69;;;14.52;81.95
40794;BME280;26502;51.886;15.604;2022-10-16T08:26:29;100734.33;;;14.75;82.19
40794;BME280;26502;51.886;15.604;2022-10-16T08:31:37;100744.34;;;15.26;82.46
40794;BME280;26502;51.886;15.604;2022-10-16T08:36:44;100742.94;;;15.84;82.05
40794;BME280;26502;51.886;15.604;2022-10-16T08:42:24;100753.34;;;16.08;81.52
40794;BME280;26502;51.886;15.604;2022-10-16T08:47:45;100756.52;;;16.22;81.21
40794;BME280;26502;51.886;15.604;2022-10-16T08:52:56;100756.70;;;16.41;80.91
40794;BME280;26502;51.886;15.604;2022-10-16T08:58:13;100756.57;;;16.60;80.81
40794;BME280;26502;51.886;15.604;2022-10-16T09:03:27;100766.38;;;16.83;80.57
40794;BME280;26502;51.886;15.604;2022-10-16T09:08:46;100769.88;;;17.00;80.30
40794;BME280;26502;51.886;15.604;2022-10-16T09:14:04;100778.08;;;17.20;79.91
40794;BME280;26502;51.886;15.604;2022-10-16T09:19:17;100777.01;;;17.38;79.64
40794;BME280;26502;51.886;15.604;2022-10-16T09:24:29;100782.21;;;17.56;79.17
40794;BME280;26502;51.886;15.604;2022-10-16T09:29:37;100779.46;;;17.75;78.80
40794;BME280;26502;51.886;15.604;2022-10-16T09:34:47;100781.45;;;17.96;78.45
40794;BME280;26502;51.886;15.604;2022-10-16T09:39:55;100780.02;;;18.25;78.13
40794;BME280;26502;51.886;15.604;2022-10-16T09:45:03;100787.27;;;18.47;77.37
40794;BME280;26502;51.886;15.604;2022-10-16T09:50:22;100774.73;;;18.49;76.52
40794;BME280;26502;51.886;15.604;2022-10-16T09:55:31;100779.55;;;18.55;76.22
40794;BME280;26502;51.886;15.604;2022-10-16T10:00:47;100772.43;;;18.65;75.97
40794;BME280;26502;51.886;15.604;2022-10-16T10:05:56;100769.58;;;18.76;75.54
40794;BME280;26502;51.886;15.604;2022-10-16T10:11:04;100768.06;;;18.77;75.38
40794;BME280;26502;51.886;15.604;2022-10-16T10:16:12;100778.78;;;18.78;75.07
40794;BME280;26502;51.886;15.604;2022-10-16T10:21:20;100790.27;;;18.87;74.96
40794;BME280;26502;51.886;15.604;2022-10-16T10:26:26;100786.91;;;19.11;74.56
40794;BME280;26502;51.886;15.604;2022-10-16T10:31:38;100808.11;;;19.14;74.08
40794;BME280;26502;51.886;15.604;2022-10-16T10:36:56;100797.90;;;19.08;73.78
40794;BME280;26502;51.886;15.604;2022-10-16T10:42:20;100799.92;;;19.05;73.66
40794;BME280;26502;51.886;15.604;2022-10-16T10:47:36;100801.77;;;19.18;73.56
40794;BME280;26502;51.886;15.604;2022-10-16T10:52:55;100804.02;;;19.27;73.32
40794;BME280;26502;51.886;15.604;2022-10-16T10:58:15;100809.15;;;19.24;73.12
40794;BME280;26502;51.886;15.604;2022-10-16T11:03:45;100818.48;;;19.13;72.71
40794;BME280;26502;51.886;15.604;2022-10-16T11:09:03;100817.41;;;19.07;72.48
40794;BME280;26502;51.886;15.604;2022-10-16T11:14:18;100814.13;;;19.18;72.37
40794;BME280;26502;51.886;15.604;2022-10-16T11:19:35;100805.79;;;19.41;71.99
40794;BME280;26502;51.886;15.604;2022-10-16T11:24:48;100795.02;;;19.67;70.91
40794;BME280;26502;51.886;15.604;2022-10-16T11:30:01;100795.26;;;19.85;70.47
40794;BME280;26502;51.886;15.604;2022-10-16T11:35:19;100805.48;;;19.99;69.43
40794;BME280;26502;51.886;15.604;2022-10-16T11:40:30;100814.32;;;20.14;68.50
40794;BME280;26502;51.886;15.604;2022-10-16T11:45:42;100827.80;;;20.33;67.45
40794;BME280;26502;51.886;15.604;2022-10-16T11:50:53;100824.95;;;20.42;67.31
40794;BME280;26502;51.886;15.604;2022-10-16T11:56:03;100822.17;;;20.48;67.15
40794;BME280;26502;51.886;15.604;2022-10-16T12:01:18;100812.19;;;20.62;66.79
40794;BME280;26502;51.886;15.604;2022-10-16T12:06:30;100807.52;;;20.64;66.40
40794;BME280;26502;51.886;15.604;2022-10-16T12:11:39;100814.53;;;20.59;66.57
40794;BME280;26502;51.886;15.604;2022-10-16T12:16:55;100823.09;;;20.48;66.29
40794;BME280;26502;51.886;15.604;2022-10-16T12:22:04;100821.50;;;20.22;65.83
40794;BME280;26502;51.886;15.604;2022-10-16T12:27:29;100824.38;;;20.10;65.21
40794;BME280;26502;51.886;15.604;2022-10-16T12:32:38;100831.15;;;20.26;64.90
40794;BME280;26502;51.886;15.604;2022-10-16T12:37:49;100832.42;;;20.51;65.08
40794;BME280;26502;51.886;15.604;2022-10-16T12:42:56;100831.76;;;20.76;65.00
40794;BME280;26502;51.886;15.604;2022-10-16T12:48:18;100829.27;;;20.91;64.56
40794;BME280;26502;51.886;15.604;2022-10-16T12:53:26;100840.21;;;20.64;64.06
40794;BME280;26502;51.886;15.604;2022-10-16T12:58:50;100845.05;;;20.54;64.03
40794;BME280;26502;51.886;15.604;2022-10-16T13:09:52;100850.37;;;20.53;64.00
40794;BME280;26502;51.886;15.604;2022-10-16T13:20:54;100873.77;;;20.61;64.63
40794;BME280;26502;51.886;15.604;2022-10-16T13:26:11;100872.19;;;20.63;64.73
40794;BME280;26502;51.886;15.604;2022-10-16T13:31:22;100877.41;;;20.56;64.66
40794;BME280;26502;51.886;15.604;2022-10-16T13:36:34;100882.56;;;20.52;64.88
40794;BME280;26502;51.886;15.604;2022-10-16T13:41:44;100884.79;;;20.61;65.03
40794;BME280;26502;51.886;15.604;2022-10-16T13:47:01;100892.95;;;20.66;64.96
40794;BME280;26502;51.886;15.604;2022-10-16T13:52:19;100897.88;;;20.67;65.23
40794;BME280;26502;51.886;15.604;2022-10-16T13:57:27;100903.63;;;20.65;65.12
40794;BME280;26502;51.886;15.604;2022-10-16T14:02:37;100910.91;;;20.54;65.01
40794;BME280;26502;51.886;15.604;2022-10-16T14:07:50;100914.02;;;20.56;65.08
40794;BME280;26502;51.886;15.604;2022-10-16T14:13:04;100912.64;;;20.76;64.90
40794;BME280;26502;51.886;15.604;2022-10-16T14:18:20;100919.60;;;20.85;64.57
40794;BME280;26502;51.886;15.604;2022-10-16T14:23:34;100927.91;;;20.82;64.39
40794;BME280;26502;51.886;15.604;2022-10-16T14:28:44;100928.63;;;20.69;64.25
40794;BME280;26502;51.886;15.604;2022-10-16T14:33:52;100933.19;;;20.60;64.22
40794;BME280;26502;51.886;15.604;2022-10-16T14:39:04;100936.77;;;20.59;64.43
40794;BME280;26502;51.886;15.604;2022-10-16T14:44:13;100939.09;;;20.64;64.31
40794;BME280;26502;51.886;15.604;2022-10-16T14:49:22;100938.80;;;20.70;64.66
40794;BME280;26502;51.886;15.604;2022-10-16T14:54:30;100941.89;;;20.73;64.46
40794;BME280;26502;51.886;15.604;2022-10-16T14:59:40;100951.22;;;20.66;64.45
40794;BME280;26502;51.886;15.604;2022-10-16T15:04:50;100953.40;;;20.60;64.49
40794;BME280;26502;51.886;15.604;2022-10-16T15:10:00;100948.47;;;20.53;64.43
40794;BME280;26502;51.886;15.604;2022-10-16T15:15:26;100952.70;;;20.42;64.60
40794;BME280;26502;51.886;15.604;2022-10-16T15:20:38;100958.05;;;20.30;64.84
40794;BME280;26502;51.886;15.604;2022-10-16T15:25:47;100967.21;;;20.14;65.09
40794;BME280;26502;51.886;15.604;2022-10-16T15:30:55;100973.39;;;20.00;65.23
40794;BME280;26502;51.886;15.604;2022-10-16T15:36:05;100977.34;;;19.84;65.54
40794;BME280;26502;51.886;15.604;2022-10-16T15:41:15;100980.55;;;19.73;65.68
40794;BME280;26502;51.886;15.604;2022-10-16T15:46:24;100985.00;;;19.66;65.97
40794;BME280;26502;51.886;15.604;2022-10-16T15:51:31;100995.16;;;19.62;66.11
40794;BME280;26502;51.886;15.604;2022-10-16T15:56:39;101002.54;;;19.57;66.30
40794;BME280;26502;51.886;15.604;2022-10-16T16:01:46;101008.83;;;19.43;66.42
40794;BME280;26502;51.886;15.604;2022-10-16T16:06:53;101016.27;;;19.25;66.58
40794;BME280;26502;51.886;15.604;2022-10-16T16:12:01;101026.01;;;19.02;66.77
40794;BME280;26502;51.886;15.604;2022-10-16T16:17:09;101031.85;;;18.76;67.04
40794;BME280;26502;51.886;15.604;2022-10-16T16:22:16;101038.17;;;18.58;67.24
40794;BME280;26502;51.886;15.604;2022-10-16T16:27:23;101040.69;;;18.46;67.18
40794;BME280;26502;51.886;15.604;2022-10-16T16:32:31;101048.19;;;18.35;67.43
40794;BME280;26502;51.886;15.604;2022-10-16T16:37:39;101051.46;;;18.19;67.62
40794;BME280;26502;51.886;15.604;2022-10-16T16:42:49;101051.91;;;18.05;67.83
40794;BME280;26502;51.886;15.604;2022-10-16T16:47:56;101059.86;;;17.91;68.03
40794;BME280;26502;51.886;15.604;2022-10-16T16:53:04;101067.50;;;17.73;68.16
40794;BME280;26502;51.886;15.604;2022-10-16T16:58:13;101080.21;;;17.45;68.36
40794;BME280;26502;51.886;15.604;2022-10-16T17:03:22;101088.09;;;17.32;68.71
40794;BME280;26502;51.886;15.604;2022-10-16T17:08:31;101090.30;;;17.31;68.73
40794;BME280;26502;51.886;15.604;2022-10-16T17:13:39;101092.71;;;17.20;68.85
40794;BME280;26502;51.886;15.604;2022-10-16T17:18:47;101105.34;;;17.08;68.82
40794;BME280;26502;51.886;15.604;2022-10-16T17:23:55;101115.16;;;16.99;68.91
40794;BME280;26502;51.886;15.604;2022-10-16T17:29:03;101125.19;;;16.92;68.91
40794;BME280;26502;51.886;15.604;2022-10-16T17:34:12;101139.08;;;16.55;69.19
40794;BME280;26502;51.886;15.604;2022-10-16T17:39:20;101142.17;;;16.43;69.29
40794;BME280;26502;51.886;15.604;2022-10-16T17:44:30;101155.38;;;16.37;69.50
40794;BME280;26502;51.886;15.604;2022-10-16T17:49:38;101173.84;;;16.29;69.61
40794;BME280;26502;51.886;15.604;2022-10-16T17:54:46;101189.80;;;16.29;69.81
40794;BME280;26502;51.886;15.604;2022-10-16T17:59:56;101184.71;;;16.27;70.11
40794;BME280;26502;51.886;15.604;2022-10-16T18:05:05;101177.27;;;16.14;70.06
40794;BME280;26502;51.886;15.604;2022-10-16T18:10:13;101181.75;;;15.91;70.22
40794;BME280;26502;51.886;15.604;2022-10-16T18:15:26;101185.93;;;15.86;70.59
40794;BME280;26502;51.886;15.604;2022-10-16T18:20:34;101192.09;;;15.88;70.69
40794;BME280;26502;51.886;15.604;2022-10-16T18:25:50;101193.56;;;15.91;70.83
40794;BME280;26502;51.886;15.604;2022-10-16T18:30:59;101200.92;;;15.91;70.83
40794;BME280;26502;51.886;15.604;2022-10-16T18:36:09;101211.35;;;15.90;70.92
40794;BME280;26502;51.886;15.604;2022-10-16T18:41:17;101217.60;;;15.86;71.08
40794;BME280;26502;51.886;15.604;2022-10-16T18:46:27;101221.88;;;15.79;71.08
40794;BME280;26502;51.886;15.604;2022-10-16T18:51:38;101230.02;;;15.72;71.19
40794;BME280;26502;51.886;15.604;2022-10-16T18:56:51;101239.77;;;15.71;71.26
40794;BME280;26502;51.886;15.604;2022-10-16T19:01:59;101244.91;;;15.52;71.21
40794;BME280;26502;51.886;15.604;2022-10-16T19:07:08;101244.28;;;15.29;71.66
40794;BME280;26502;51.886;15.604;2022-10-16T19:12:16;101245.99;;;15.31;72.00
40794;BME280;26502;51.886;15.604;2022-10-16T19:17:24;101250.23;;;15.28;72.12
40794;BME280;26502;51.886;15.604;2022-10-16T19:22:33;101251.90;;;15.31;72.23
40794;BME280;26502;51.886;15.604;2022-10-16T19:27:55;101255.13;;;15.27;72.27
40794;BME280;26502;51.886;15.604;2022-10-16T19:33:02;101259.69;;;15.24;72.17
40794;BME280;26502;51.886;15.604;2022-10-16T19:38:10;101264.23;;;15.23;72.14
40794;BME280;26502;51.886;15.604;2022-10-16T19:43:18;101262.98;;;15.22;72.10
40794;BME280;26502;51.886;15.604;2022-10-16T19:48:26;101267.06;;;15.15;72.23
40794;BME280;26502;51.886;15.604;2022-10-16T19:53:34;101282.79;;;15.11;72.29
40794;BME280;26502;51.886;15.604;2022-10-16T19:58:42;101289.75;;;15.07;72.16
40794;BME280;26502;51.886;15.604;2022-10-16T20:03:50;101294.94;;;14.94;72.07
40794;BME280;26502;51.886;15.604;2022-10-16T20:08:57;101305.93;;;14.88;72.22
40794;BME280;26502;51.886;15.604;2022-10-16T20:14:05;101314.09;;;14.84;72.05
40794;BME280;26502;51.886;15.604;2022-10-16T20:19:12;101310.50;;;14.71;72.06
40794;BME280;26502;51.886;15.604;2022-10-16T20:24:20;101320.33;;;14.62;72.20
40794;BME280;26502;51.886;15.604;2022-10-16T20:29:28;101324.48;;;14.47;72.09
40794;BME280;26502;51.886;15.604;2022-10-16T20:34:37;101327.81;;;14.39;72.30
40794;BME280;26502;51.886;15.604;2022-10-16T20:39:44;101333.98;;;14.36;72.31
40794;BME280;26502;51.886;15.604;2022-10-16T20:44:51;101328.82;;;14.31;72.39
40794;BME280;26502;51.886;15.604;2022-10-16T20:49:59;101329.16;;;14.27;72.24
40794;BME280;26502;51.886;15.604;2022-10-16T20:55:08;101321.74;;;14.20;72.42
40794;BME280;26502;51.886;15.604;2022-10-16T21:00:16;101319.95;;;14.10;72.44
40794;BME280;26502;51.886;15.604;2022-10-16T21:05:23;101325.92;;;13.98;72.31
40794;BME280;26502;51.886;15.604;2022-10-16T21:10:33;101330.92;;;13.94;72.35
40794;BME280;26502;51.886;15.604;2022-10-16T21:15:40;101338.04;;;13.89;72.35
40794;BME280;26502;51.886;15.604;2022-10-16T21:20:47;101346.08;;;13.89;72.33
40794;BME280;26502;51.886;15.604;2022-10-16T21:25:54;101347.09;;;13.86;72.31
40794;BME280;26502;51.886;15.604;2022-10-16T21:31:11;101346.65;;;13.83;72.49
40794;BME280;26502;51.886;15.604;2022-10-16T21:36:20;101346.85;;;13.77;72.58
40794;BME280;26502;51.886;15.604;2022-10-16T21:41:28;101357.23;;;13.71;72.58
40794;BME280;26502;51.886;15.604;2022-10-16T21:46:38;101368.02;;;13.64;72.65
40794;BME280;26502;51.886;15.604;2022-10-16T21:51:49;101384.88;;;13.50;72.58
40794;BME280;26502;51.886;15.604;2022-10-16T21:56:56;101395.89;;;13.18;72.33
40794;BME280;26502;51.886;15.604;2022-10-16T22:02:04;101396.46;;;13.00;72.87
40794;BME280;26502;51.886;15.604;2022-10-16T22:07:11;101391.11;;;13.00;72.97
40794;BME280;26502;51.886;15.604;2022-10-16T22:12:18;101391.87;;;13.04;73.12
40794;BME280;26502;51.886;15.604;2022-10-16T22:17:26;101399.14;;;13.11;73.21
40794;BME280;26502;51.886;15.604;2022-10-16T22:22:33;101397.37;;;13.11;73.28
40794;BME280;26502;51.886;15.604;2022-10-16T22:27:40;101405.48;;;13.13;73.34
40794;BME280;26502;51.886;15.604;2022-10-16T22:32:47;101401.77;;;13.12;73.31
40794;BME280;26502;51.886;15.604;2022-10-16T22:37:54;101404.08;;;13.13;73.36
40794;BME280;26502;51.886;15.604;2022-10-16T22:43:01;101408.55;;;13.01;73.47
40794;BME280;26502;51.886;15.604;2022-10-16T22:48:09;101416.21;;;12.89;73.58
40794;BME280;26502;51.886;15.604;2022-10-16T22:53:16;101416.20;;;12.78;73.79
40794;BME280;26502;51.886;15.604;2022-10-16T22:58:23;101418.76;;;12.82;74.08
40794;BME280;26502;51.886;15.604;2022-10-16T23:03:30;101421.08;;;12.87;74.13
40794;BME280;26502;51.886;15.604;2022-10-16T23:08:37;101426.48;;;12.92;74.25
40794;BME280;26502;51.886;15.604;2022-10-16T23:13:44;101428.25;;;12.98;74.33
40794;BME280;26502;51.886;15.604;2022-10-16T23:18:51;101427.20;;;13.03;74.40
40794;BME280;26502;51.886;15.604;2022-10-16T23:23:59;101427.52;;;13.04;74.47
40794;BME280;26502;51.886;15.604;2022-10-16T23:29:08;101430.81;;;13.08;74.69
40794;BME280;26502;51.886;15.604;2022-10-16T23:34:15;101440.60;;;13.14;74.66
40794;BME280;26502;51.886;15.604;2022-10-16T23:39:23;101443.84;;;13.13;74.70
40794;BME280;26502;51.886;15.604;2022-10-16T23:44:30;101447.58;;;13.07;74.75
40794;BME280;26502;51.886;15.604;2022-10-16T23:49:38;101441.20;;;13.06;74.92
40794;BME280;26502;51.886;15.604;2022-10-16T23:54:45;101441.47;;;13.09;75.00
40794;BME280;26502;51.886;15.604;2022-10-16T23:59:52;101446.64;;;13.03;74.99
